createdAt,value
2022-12-20T00:01:28.692Z,49.50
2022-12-20T00:04:00.037Z,47.57
2022-12-20T00:06:28.236Z,47.97
2022-12-20T00:08:57.921Z,48.83
2022-12-20T00:11:26.248Z,47.10
2022-12-20T00:13:56.221Z,46.83
2022-12-20T00:16:25.810Z,49.60
2022-12-20T00:18:56.847Z,46.93
2022-12-20T00:21:26.426Z,48.10
2022-12-20T00:23:55.129Z,46.90
2022-12-20T00:26:24.850Z,47.13
2022-12-20T00:28:55.881Z,55.77
2022-12-20T00:31:25.451Z,47.83
2022-12-20T00:33:55.502Z,49.80
2022-12-20T00:36:24.830Z,50.03
2022-12-20T00:38:54.716Z,48.03
2022-12-20T00:41:25.230Z,51.07
2022-12-20T00:43:55.265Z,50.77
2022-12-20T00:46:24.746Z,51.37
2022-12-20T00:48:53.210Z,55.67
2022-12-20T00:51:22.771Z,52.90
2022-12-20T00:53:51.353Z,57.53
2022-12-20T00:56:19.698Z,54.43
2022-12-20T00:58:48.235Z,53.03
2022-12-20T01:01:21.658Z,50.27
2022-12-20T01:03:50.700Z,53.83
2022-12-20T01:06:22.015Z,53.53
2022-12-20T01:08:50.228Z,55.77
2022-12-20T01:11:20.391Z,49.83
2022-12-20T01:13:53.576Z,47.90
2022-12-20T01:16:26.153Z,50.60
2022-12-20T01:18:54.921Z,49.60
2022-12-20T01:21:27.776Z,49.90
2022-12-20T01:23:56.332Z,48.00
2022-12-20T01:26:27.290Z,49.50
2022-12-20T01:28:57.150Z,51.87
2022-12-20T01:31:30.643Z,50.20
2022-12-20T01:33:59.480Z,45.03
2022-12-20T01:36:30.427Z,46.67
2022-12-20T01:38:59.273Z,46.00
2022-12-20T01:41:31.007Z,46.87
2022-12-20T01:44:01.380Z,49.20
2022-12-20T01:46:33.731Z,46.57
2022-12-20T01:49:06.848Z,48.17
2022-12-20T01:51:39.440Z,46.93
2022-12-20T01:54:13.066Z,46.50
2022-12-20T01:56:45.126Z,49.53
2022-12-20T01:59:15.151Z,49.50
2022-12-20T02:01:45.125Z,46.00
2022-12-20T02:04:13.550Z,49.50
2022-12-20T02:06:41.943Z,46.30
2022-12-20T02:09:10.478Z,45.53
2022-12-20T02:11:58.253Z,43.83
2022-12-20T02:14:37.250Z,50.37
2022-12-20T02:17:14.227Z,48.93
2022-12-20T02:19:59.919Z,45.20
2022-12-20T02:22:34.848Z,48.57
2022-12-20T02:25:38.610Z,45.67
2022-12-20T02:28:16.601Z,48.30
2022-12-20T02:30:48.756Z,43.03
2022-12-20T02:33:16.834Z,47.67
2022-12-20T02:35:44.915Z,50.80
2022-12-20T02:38:28.280Z,45.83
2022-12-20T02:41:03.791Z,49.67
2022-12-20T02:43:51.136Z,44.47
2022-12-20T02:46:22.164Z,46.63
2022-12-20T02:48:52.255Z,43.83
2022-12-20T02:51:23.130Z,43.50
2022-12-20T02:53:51.627Z,46.67
2022-12-20T02:56:24.072Z,49.83
2022-12-20T02:58:56.300Z,48.63
2022-12-20T03:01:31.921Z,45.73
2022-12-20T03:04:01.817Z,44.37
2022-12-20T03:06:30.725Z,49.30
2022-12-20T03:08:59.477Z,45.50
2022-12-20T03:11:27.591Z,46.37
2022-12-20T03:13:56.378Z,45.90
2022-12-20T03:16:25.917Z,44.80
2022-12-20T03:18:53.963Z,45.93
2022-12-20T03:21:22.051Z,48.17
2022-12-20T03:23:50.122Z,48.63
2022-12-20T03:26:18.410Z,46.87
2022-12-20T03:28:46.550Z,44.33
2022-12-20T03:31:14.645Z,43.53
2022-12-20T03:33:44.154Z,42.47
2022-12-20T03:36:12.218Z,43.60
2022-12-20T03:38:43.675Z,44.53
2022-12-20T03:41:11.723Z,46.73
2022-12-20T03:43:39.752Z,45.77
2022-12-20T03:46:07.878Z,45.57
2022-12-20T03:48:36.194Z,46.93
2022-12-20T03:51:06.009Z,46.40
2022-12-20T03:53:34.444Z,44.83
2022-12-20T03:56:02.431Z,46.47
2022-12-20T03:58:30.519Z,48.27
2022-12-20T04:00:58.842Z,46.93
2022-12-20T04:03:27.141Z,44.17
2022-12-20T04:05:55.254Z,46.30
2022-12-20T04:08:24.765Z,50.37
2022-12-20T04:11:10.192Z,45.63
2022-12-20T04:13:39.298Z,42.93
2022-12-20T04:16:07.765Z,42.67
2022-12-20T04:18:35.768Z,48.57
2022-12-20T04:21:04.741Z,47.50
2022-12-20T04:23:35.209Z,47.17
2022-12-20T04:26:03.745Z,50.30
2022-12-20T04:28:32.276Z,46.53
2022-12-20T04:31:00.929Z,47.87
2022-12-20T04:33:29.826Z,46.70
2022-12-20T04:35:59.209Z,45.57
2022-12-20T04:38:27.628Z,45.10
2022-12-20T04:40:57.340Z,42.33
2022-12-20T04:43:25.811Z,44.17
2022-12-20T04:45:57.192Z,44.50
2022-12-20T04:51:15.899Z,43.47
2022-12-20T04:53:48.573Z,43.17
2022-12-20T04:56:20.211Z,42.67
2022-12-20T04:58:50.705Z,44.30
2022-12-20T05:01:19.783Z,45.87
2022-12-20T05:03:48.132Z,45.33
2022-12-20T05:06:16.899Z,47.33
2022-12-20T05:08:44.995Z,46.37
2022-12-20T05:11:13.962Z,44.07
2022-12-20T05:13:43.530Z,44.03
2022-12-20T05:16:11.817Z,41.07
2022-12-20T05:18:46.446Z,45.43
2022-12-20T05:21:34.265Z,47.43
2022-12-20T05:24:19.651Z,46.07
2022-12-20T05:26:47.833Z,49.13
2022-12-20T05:29:17.830Z,47.87
2022-12-20T05:31:49.732Z,49.93
2022-12-20T05:34:17.991Z,50.73
2022-12-20T05:36:46.169Z,46.87
2022-12-20T05:39:14.723Z,47.17
2022-12-20T05:41:42.828Z,47.53
2022-12-20T05:44:12.915Z,47.43
2022-12-20T05:46:42.549Z,48.23
2022-12-20T05:49:10.581Z,48.90
2022-12-20T05:51:38.634Z,49.77
2022-12-20T05:54:06.983Z,47.00
2022-12-20T05:56:38.111Z,48.67
2022-12-20T05:59:06.345Z,49.80
2022-12-20T06:01:34.695Z,53.20
2022-12-20T06:04:04.279Z,54.87
2022-12-20T06:06:32.733Z,55.77
2022-12-20T06:09:02.016Z,55.37
2022-12-20T06:11:30.686Z,46.03
2022-12-20T06:13:59.311Z,48.33
2022-12-20T06:16:28.598Z,47.20
2022-12-20T06:18:56.925Z,43.27
2022-12-20T06:21:31.779Z,46.67
2022-12-20T06:24:01.573Z,49.50
2022-12-20T06:26:36.029Z,50.77
2022-12-20T06:29:07.094Z,47.10
2022-12-20T06:31:35.645Z,51.37
2022-12-20T06:34:03.833Z,44.27
2022-12-20T06:36:33.247Z,45.37
2022-12-20T06:39:04.659Z,45.07
2022-12-20T06:41:38.371Z,46.67
2022-12-20T06:44:06.644Z,45.47
2022-12-20T06:46:34.933Z,47.17
2022-12-20T06:49:03.009Z,47.67
2022-12-20T06:51:32.525Z,45.10
2022-12-20T06:54:00.777Z,44.00
2022-12-20T06:56:28.823Z,42.03
2022-12-20T06:58:56.852Z,45.87
2022-12-20T07:01:25.079Z,42.30
2022-12-20T07:03:53.252Z,43.93
2022-12-20T07:06:22.588Z,43.40
2022-12-20T07:08:52.094Z,42.40
2022-12-20T07:11:20.188Z,45.97
2022-12-20T07:13:48.417Z,48.17
2022-12-20T07:16:16.477Z,44.57
2022-12-20T07:18:44.902Z,49.60
2022-12-20T07:21:16.739Z,45.97
2022-12-20T07:23:44.801Z,47.00
2022-12-20T07:26:15.405Z,44.63
2022-12-20T07:28:44.835Z,41.60
2022-12-20T07:31:13.460Z,41.83
2022-12-20T07:33:41.491Z,37.73
2022-12-20T07:36:12.924Z,39.43
2022-12-20T07:38:41.362Z,39.57
2022-12-20T07:41:10.246Z,37.80
2022-12-20T07:43:40.405Z,41.00
2022-12-20T07:46:09.777Z,45.63
2022-12-20T07:48:37.854Z,39.67
2022-12-20T07:51:09.765Z,41.80
2022-12-20T07:53:41.701Z,41.27
2022-12-20T07:56:11.560Z,37.70
2022-12-20T07:58:44.264Z,42.07
2022-12-20T08:01:13.843Z,48.40
2022-12-20T08:03:47.319Z,42.97
2022-12-20T08:06:16.635Z,40.87
2022-12-20T08:08:48.930Z,41.57
2022-12-20T08:11:18.160Z,40.07
2022-12-20T08:13:51.484Z,39.13
2022-12-20T08:16:22.195Z,36.83
2022-12-20T08:18:50.347Z,36.67
2022-12-20T08:21:19.126Z,34.93
2022-12-20T08:23:47.724Z,35.57
2022-12-20T08:26:16.128Z,40.93
2022-12-20T08:28:44.137Z,36.20
2022-12-20T08:31:13.886Z,35.27
2022-12-20T08:33:42.443Z,37.27
2022-12-20T08:36:14.884Z,36.53
2022-12-20T08:38:43.187Z,36.77
2022-12-20T08:41:14.995Z,36.93
2022-12-20T08:43:43.818Z,37.20
2022-12-20T08:46:14.384Z,37.53
2022-12-20T08:48:42.455Z,35.00
2022-12-20T08:51:15.160Z,33.73
2022-12-20T08:53:43.200Z,39.97
2022-12-20T08:56:13.530Z,34.20
2022-12-20T08:58:43.100Z,36.37
2022-12-20T09:01:14.989Z,33.07
2022-12-20T09:03:43.488Z,39.87
2022-12-20T09:06:13.325Z,33.47
2022-12-20T09:08:42.051Z,32.37
2022-12-20T09:11:13.074Z,42.47
2022-12-20T09:13:44.370Z,37.97
2022-12-20T09:16:16.068Z,36.27
2022-12-20T09:18:44.613Z,36.83
2022-12-20T09:21:13.173Z,37.70
2022-12-20T09:23:41.268Z,37.93
2022-12-20T09:26:12.984Z,38.77
2022-12-20T09:28:44.858Z,39.17
2022-12-20T09:31:16.287Z,43.10
2022-12-20T09:33:44.925Z,37.50
2022-12-20T09:36:13.669Z,37.80
2022-12-20T09:38:42.093Z,32.07
2022-12-20T09:41:22.875Z,32.97
2022-12-20T09:43:52.022Z,35.03
2022-12-20T09:46:21.635Z,35.17
2022-12-20T09:48:50.259Z,35.60
2022-12-20T09:51:31.556Z,33.93
2022-12-20T09:54:07.574Z,30.97
2022-12-20T09:56:44.175Z,34.27
2022-12-20T09:59:14.441Z,34.40
2022-12-20T10:01:47.541Z,42.53
2022-12-20T10:04:21.991Z,33.17
2022-12-20T10:07:01.026Z,35.80
2022-12-20T10:09:58.844Z,36.20
2022-12-20T10:12:38.773Z,36.40
2022-12-20T10:15:19.334Z,35.93
2022-12-20T10:18:19.682Z,36.60
2022-12-20T10:20:58.206Z,34.97
2022-12-20T10:23:33.526Z,32.43
2022-12-20T10:26:04.622Z,31.30
2022-12-20T10:28:36.154Z,31.77
2022-12-20T10:31:06.358Z,28.83
2022-12-20T10:33:36.502Z,28.00
2022-12-20T10:36:23.458Z,27.83
2022-12-20T10:38:54.119Z,25.87
2022-12-20T10:41:24.765Z,27.07
2022-12-20T10:43:57.994Z,32.70
2022-12-20T10:46:38.366Z,28.93
2022-12-20T10:49:28.775Z,28.10
2022-12-20T10:51:58.798Z,25.53
2022-12-20T10:54:32.116Z,28.87
2022-12-20T10:57:03.111Z,26.23
2022-12-20T10:59:35.558Z,27.53
2022-12-20T11:02:04.948Z,29.83
2022-12-20T11:04:37.033Z,36.03
2022-12-20T11:07:25.985Z,27.80
2022-12-20T11:09:59.191Z,30.87
2022-12-20T11:12:27.374Z,31.33
2022-12-20T11:15:10.680Z,31.37
2022-12-20T11:17:42.947Z,32.17
2022-12-20T11:20:29.058Z,36.10
2022-12-20T11:23:07.766Z,32.67
2022-12-20T11:25:53.708Z,31.20
2022-12-20T11:28:41.939Z,33.00
2022-12-20T11:31:17.325Z,31.83
2022-12-20T11:34:03.371Z,33.90
2022-12-20T11:36:47.387Z,35.60
2022-12-20T11:39:25.378Z,33.57
2022-12-20T11:42:04.810Z,35.60
2022-12-20T11:44:56.360Z,43.57
2022-12-20T11:48:08.988Z,37.27
2022-12-20T11:50:50.550Z,37.63
2022-12-20T11:53:24.275Z,36.47
2022-12-20T11:55:55.590Z,36.77
2022-12-20T11:58:29.497Z,38.80
2022-12-20T12:01:02.162Z,41.00
2022-12-20T12:03:34.869Z,35.10
2022-12-20T12:06:06.913Z,32.90
2022-12-20T12:08:42.653Z,38.90
2022-12-20T12:11:55.797Z,40.47
2022-12-20T12:14:07.316Z,37.57
2022-12-20T12:16:38.605Z,40.83
2022-12-20T12:19:11.411Z,38.10
2022-12-20T12:21:45.122Z,36.33
2022-12-20T12:24:25.998Z,37.67
2022-12-20T12:26:55.438Z,42.43
2022-12-20T12:29:25.422Z,40.40
2022-12-20T12:31:59.166Z,39.53
2022-12-20T12:34:40.733Z,42.33
2022-12-20T12:37:32.376Z,41.67
2022-12-20T12:40:47.377Z,40.80
2022-12-20T12:43:51.098Z,39.07
2022-12-20T12:46:26.344Z,40.80
2022-12-20T12:49:00.229Z,46.30
2022-12-20T12:51:32.926Z,43.73
2022-12-20T12:54:17.763Z,47.00
2022-12-20T12:56:47.651Z,44.40
2022-12-20T12:59:41.176Z,46.80
2022-12-20T13:02:35.998Z,45.70
2022-12-20T13:05:35.791Z,48.97
2022-12-20T13:08:04.849Z,46.13
2022-12-20T13:10:59.556Z,45.57
2022-12-20T13:13:28.221Z,50.17
2022-12-20T13:16:12.778Z,50.97
2022-12-20T13:19:12.382Z,47.57
2022-12-20T13:21:43.150Z,47.57
2022-12-20T13:24:41.128Z,46.73
2022-12-20T13:27:30.919Z,47.60
2022-12-20T13:30:28.019Z,46.63
2022-12-20T13:33:12.730Z,47.80
2022-12-20T13:36:04.514Z,50.13
2022-12-20T13:38:55.611Z,50.00
2022-12-20T13:41:39.747Z,45.67
2022-12-20T13:44:25.543Z,46.90
2022-12-20T13:46:59.731Z,49.77
2022-12-20T13:49:30.813Z,48.17
2022-12-20T13:52:18.107Z,47.97
2022-12-20T13:54:48.816Z,47.60
2022-12-20T13:57:22.761Z,43.17
2022-12-20T14:00:03.533Z,44.70
2022-12-20T14:02:37.497Z,53.07
2022-12-20T14:05:10.245Z,48.33
2022-12-20T14:07:43.077Z,43.80
2022-12-20T14:10:22.113Z,43.97
2022-12-20T14:12:52.152Z,48.80
2022-12-20T14:15:24.165Z,51.27
2022-12-20T14:17:52.819Z,54.47
2022-12-20T14:20:30.275Z,58.90
2022-12-20T14:23:06.556Z,50.83
2022-12-20T14:25:39.893Z,49.27
2022-12-20T14:28:26.813Z,56.07
2022-12-20T14:30:56.558Z,50.80
2022-12-20T14:33:30.987Z,52.93
2022-12-20T14:36:08.472Z,49.00
2022-12-20T14:38:38.689Z,45.50
2022-12-20T14:41:28.828Z,47.07
2022-12-20T14:43:57.931Z,45.43
2022-12-20T14:46:26.100Z,50.33
2022-12-20T14:49:11.231Z,50.10
2022-12-20T14:51:43.165Z,51.50
2022-12-20T14:54:47.774Z,48.50
2022-12-20T14:57:12.839Z,52.90
2022-12-20T14:59:41.569Z,51.87
2022-12-20T15:02:40.356Z,56.10
2022-12-20T15:05:10.920Z,52.20
2022-12-20T15:07:44.026Z,49.97
2022-12-20T15:10:15.329Z,54.00
2022-12-20T15:12:44.197Z,51.97
2022-12-20T15:15:28.933Z,51.13
2022-12-20T15:17:57.827Z,48.40
2022-12-20T15:20:26.389Z,50.57
2022-12-20T15:22:54.545Z,48.60
2022-12-20T15:25:23.997Z,47.87
2022-12-20T15:27:52.332Z,48.97
2022-12-20T15:30:22.792Z,47.43
2022-12-20T15:32:55.707Z,45.97
2022-12-20T15:35:24.930Z,50.50
2022-12-20T15:37:53.034Z,46.33
2022-12-20T15:40:21.104Z,46.17
2022-12-20T15:42:50.484Z,45.10
2022-12-20T15:45:19.265Z,46.40
2022-12-20T15:47:47.337Z,52.53
2022-12-20T15:50:15.580Z,52.10
2022-12-20T15:52:44.350Z,50.50
2022-12-20T15:55:12.484Z,53.27
2022-12-20T15:57:40.880Z,49.87
2022-12-20T16:00:13.723Z,51.67
2022-12-20T16:02:41.974Z,52.80
2022-12-20T16:05:14.339Z,61.00
2022-12-20T16:07:42.794Z,58.57
2022-12-20T16:10:15.385Z,56.40
2022-12-20T16:12:43.641Z,52.83
2022-12-20T16:15:21.541Z,54.80
2022-12-20T16:17:50.183Z,56.03
2022-12-20T16:20:19.378Z,56.13
2022-12-20T16:22:47.536Z,57.00
2022-12-20T16:25:31.056Z,56.60
2022-12-20T16:27:59.931Z,55.03
2022-12-20T16:30:29.827Z,55.63
2022-12-20T16:32:59.650Z,55.30
2022-12-20T16:35:31.089Z,58.43
2022-12-20T16:38:05.614Z,61.83
2022-12-20T16:40:34.563Z,58.13
2022-12-20T16:43:02.659Z,57.23
2022-12-20T16:45:34.425Z,57.03
2022-12-20T16:48:03.762Z,58.63
2022-12-20T16:50:32.179Z,60.80
2022-12-20T16:53:00.318Z,57.20
2022-12-20T16:55:32.171Z,63.27
2022-12-20T16:58:04.207Z,58.60
2022-12-20T17:00:34.155Z,59.87
2022-12-20T17:03:02.397Z,57.57
2022-12-20T17:05:32.647Z,59.57
2022-12-20T17:08:00.732Z,54.90
2022-12-20T17:10:31.681Z,57.63
2022-12-20T17:13:00.222Z,58.17
2022-12-20T17:15:32.343Z,56.13
2022-12-20T17:18:01.793Z,59.60
2022-12-20T17:20:35.018Z,58.53
2022-12-20T17:23:05.355Z,55.43
2022-12-20T17:25:37.076Z,61.30
2022-12-20T17:28:06.267Z,60.50
2022-12-20T17:30:34.396Z,62.87
2022-12-20T17:33:03.910Z,62.43
2022-12-20T17:35:37.996Z,58.63
2022-12-20T17:38:07.647Z,62.67
2022-12-20T17:40:35.734Z,58.47
2022-12-20T17:43:03.777Z,61.57
2022-12-20T17:45:36.133Z,59.63
2022-12-20T17:48:08.245Z,59.17
2022-12-20T17:50:36.311Z,64.90
2022-12-20T17:53:04.353Z,59.10
2022-12-20T17:55:32.681Z,60.60
2022-12-20T17:58:00.715Z,58.80
2022-12-20T18:00:38.551Z,56.37
2022-12-20T18:03:30.135Z,64.30
2022-12-20T18:06:05.713Z,63.50
2022-12-20T18:08:35.993Z,60.03
2022-12-20T18:11:04.375Z,61.63
2022-12-20T18:13:32.435Z,62.47
2022-12-20T18:16:00.547Z,67.13
2022-12-20T18:18:35.175Z,68.43
2022-12-20T18:21:06.781Z,67.60
2022-12-20T18:23:35.679Z,70.83
2022-12-20T18:26:12.534Z,68.27
2022-12-20T18:28:42.723Z,62.40
2022-12-20T18:31:13.437Z,65.17
2022-12-20T18:33:42.895Z,65.27
2022-12-20T18:36:14.446Z,66.83
2022-12-20T18:38:45.295Z,67.20
2022-12-20T18:41:16.033Z,70.77
2022-12-20T18:43:46.309Z,76.03
2022-12-20T18:46:16.139Z,71.33
2022-12-20T18:48:46.033Z,62.93
2022-12-20T18:51:16.870Z,62.77
2022-12-20T18:53:47.340Z,69.07
2022-12-20T18:56:17.570Z,210.73
2022-12-20T18:58:49.663Z,107.07
2022-12-20T19:01:20.378Z,74.00
2022-12-20T19:03:50.003Z,67.97
2022-12-20T19:06:18.985Z,60.37
2022-12-20T19:08:47.565Z,59.53
2022-12-20T19:11:18.183Z,62.00
2022-12-20T19:13:46.901Z,64.57
2022-12-20T19:16:16.836Z,65.30
2022-12-20T19:18:45.697Z,72.17
2022-12-20T19:21:17.014Z,70.17
2022-12-20T19:23:46.922Z,71.10
2022-12-20T19:26:16.518Z,71.03
2022-12-20T19:28:45.359Z,68.37
2022-12-20T19:31:21.483Z,66.37
2022-12-20T19:33:51.104Z,69.27
2022-12-20T19:36:23.065Z,64.47
2022-12-20T19:38:53.029Z,68.30
2022-12-20T19:41:21.923Z,67.70
2022-12-20T19:43:51.782Z,66.67
2022-12-20T19:46:28.057Z,60.97
2022-12-20T19:48:58.547Z,66.97
2022-12-20T19:51:29.137Z,62.30
2022-12-20T19:53:58.935Z,59.87
2022-12-20T19:56:30.311Z,62.87
2022-12-20T19:58:58.539Z,65.07
2022-12-20T20:01:28.080Z,65.63
2022-12-20T20:03:57.934Z,64.27
2022-12-20T20:06:29.325Z,64.07
2022-12-20T20:08:59.792Z,67.47
2022-12-20T20:11:29.134Z,66.70
2022-12-20T20:13:57.458Z,67.67
2022-12-20T20:16:26.180Z,67.63
2022-12-20T20:18:54.925Z,71.77
2022-12-20T20:21:24.578Z,67.67
2022-12-20T20:23:55.405Z,68.40
2022-12-20T20:26:25.908Z,66.67
2022-12-20T20:28:54.470Z,65.63
2022-12-20T20:31:23.727Z,67.93
2022-12-20T20:33:52.099Z,65.63
2022-12-20T20:36:22.191Z,66.07
2022-12-20T20:38:53.355Z,62.67
2022-12-20T20:41:22.822Z,69.07
2022-12-20T20:43:51.291Z,64.27
2022-12-20T20:46:19.553Z,69.10
2022-12-20T20:48:47.893Z,67.07
2022-12-20T20:51:16.189Z,64.53
2022-12-20T20:53:44.778Z,62.53
2022-12-20T20:56:14.331Z,66.17
2022-12-20T20:58:42.492Z,63.10
2022-12-20T21:01:11.548Z,63.57
2022-12-20T21:03:40.472Z,67.53
2022-12-20T21:09:01.177Z,66.53
2022-12-20T21:11:30.800Z,63.80
2022-12-20T21:13:58.946Z,65.10
2022-12-20T21:16:27.579Z,60.00
2022-12-20T21:18:57.877Z,62.33
2022-12-20T21:21:27.300Z,66.27
2022-12-20T21:23:56.225Z,64.80
2022-12-20T21:26:25.434Z,61.73
2022-12-20T21:28:59.136Z,67.70
2022-12-20T21:31:27.245Z,64.27
2022-12-20T21:33:56.694Z,67.00
2022-12-20T21:36:25.405Z,65.90
2022-12-20T21:38:55.197Z,64.80
2022-12-20T21:41:26.751Z,63.60
2022-12-20T21:43:57.691Z,63.30
2022-12-20T21:46:28.711Z,61.37
2022-12-20T21:48:57.059Z,64.27
2022-12-20T21:51:26.670Z,64.53
2022-12-20T21:53:56.215Z,60.90
2022-12-20T21:56:25.419Z,63.57
2022-12-20T21:58:54.135Z,55.27
2022-12-20T22:01:24.017Z,61.77
2022-12-20T22:03:57.775Z,57.60
2022-12-20T22:06:27.988Z,62.20
2022-12-20T22:08:57.713Z,58.90
2022-12-20T22:11:26.297Z,75.60
2022-12-20T22:13:56.535Z,98.53
2022-12-20T22:16:26.825Z,72.27
2022-12-20T22:18:57.610Z,62.50
2022-12-20T22:21:27.999Z,66.90
2022-12-20T22:23:56.945Z,64.37
2022-12-20T22:26:26.879Z,64.27
2022-12-20T22:28:56.589Z,63.03
2022-12-20T22:31:25.996Z,58.90
2022-12-20T22:33:58.207Z,61.43
2022-12-20T22:36:26.760Z,57.90
2022-12-20T22:38:56.546Z,58.67
2022-12-20T22:41:26.695Z,60.93
2022-12-20T22:43:55.766Z,62.77
2022-12-20T22:46:23.995Z,58.63
2022-12-20T22:48:53.150Z,58.33
2022-12-20T22:51:24.829Z,61.83
2022-12-20T22:53:53.090Z,55.10
2022-12-20T22:56:21.705Z,57.27
2022-12-20T22:58:50.424Z,53.67
2022-12-20T23:01:21.619Z,57.57
2022-12-20T23:03:50.786Z,56.63
2022-12-20T23:06:21.554Z,54.93
2022-12-20T23:08:50.939Z,54.97
2022-12-20T23:11:39.220Z,54.87
2022-12-20T23:14:28.072Z,56.50
2022-12-20T23:16:56.164Z,57.83
2022-12-20T23:19:24.248Z,58.00
2022-12-20T23:22:10.171Z,57.67
2022-12-20T23:24:39.562Z,52.33
2022-12-20T23:27:07.845Z,54.67
2022-12-20T23:29:37.219Z,59.20
2022-12-20T23:32:05.238Z,56.10
2022-12-20T23:34:33.614Z,59.20
2022-12-20T23:37:01.635Z,58.60
2022-12-20T23:39:29.721Z,54.83
2022-12-20T23:41:59.204Z,60.33
2022-12-20T23:44:27.363Z,55.50
2022-12-20T23:46:55.613Z,51.83
2022-12-20T23:49:23.712Z,55.20
2022-12-20T23:51:51.711Z,55.03
2022-12-20T23:54:21.449Z,53.67
2022-12-20T23:56:49.657Z,54.30
2022-12-20T23:59:19.864Z,53.23
